Time;durP1;ratioP1;P1;durP2;ratioP2;P2;SDS_P1;SDS_P2;PMS_P1;PMS_P2;Temp;Humidity;BMP_temperature;BMP_pressure;BME280_temperature;BME280_humidity;BME280_pressure;Samples;Min_cycle;Max_cycle;Signal;HPM_P1;HPM_P2
2024/04/16 00:01:11;;;;;;;16.20;0.45;;;;;;;1.56;63.02;99639.00;5387227;26;20030;-77
2024/04/16 00:03:36;;;;;;;10.38;0.40;;;;;;;1.76;62.26;99635.97;5382805;26;20082;-76
2024/04/16 00:06:02;;;;;;;1.05;0.40;;;;;;;1.57;62.83;99634.69;5387583;26;21052;-76
2024/04/16 00:08:27;;;;;;;2.05;0.10;;;;;;;1.80;61.78;99632.44;5363258;26;20006;-75
2024/04/16 00:10:59;;;;;;;5.22;0.20;;;;;;;1.64;62.21;99631.09;5395199;26;20003;-75
2024/04/16 00:13:26;;;;;;;0.98;0.20;;;;;;;1.60;61.92;99629.50;5376651;26;20103;-74
2024/04/16 00:16:11;;;;;;;3.13;0.20;;;;;;;1.74;61.10;99617.13;5349515;26;20007;-74
2024/04/16 00:18:37;;;;;;;1.63;0.10;;;;;;;1.59;61.85;99613.16;5330972;26;20016;-74
2024/04/16 00:21:03;;;;;;;5.50;0.35;;;;;;;1.50;61.78;99609.06;5328125;26;20228;-72
2024/04/16 00:23:31;;;;;;;1.33;0.20;;;;;;;1.45;62.40;99626.38;5367820;26;20061;-71
2024/04/16 00:25:56;;;;;;;2.40;0.00;;;;;;;1.38;62.91;99614.47;5385770;26;20048;-71
2024/04/16 00:28:22;;;;;;;2.45;0.10;;;;;;;1.62;62.30;99617.44;5412998;25;20015;-73
2024/04/16 00:30:47;;;;;;;2.72;0.20;;;;;;;1.70;62.79;99629.22;5384876;26;20448;-73
2024/04/16 00:33:12;;;;;;;5.07;0.15;;;;;;;1.73;63.08;99623.19;5391392;26;20480;-72
2024/04/16 00:35:42;;;;;;;0.95;0.10;;;;;;;1.64;63.10;99620.78;5392013;26;20003;-73
2024/04/16 00:38:08;;;;;;;3.53;0.10;;;;;;;1.78;62.61;99615.34;5381002;26;20011;-72
2024/04/16 00:40:34;;;;;;;6.90;0.30;;;;;;;2.12;62.58;99617.94;5360195;26;20329;-72
2024/04/16 00:42:59;;;;;;;2.42;0.22;;;;;;;1.90;62.06;99623.59;5382291;26;20107;-72
2024/04/16 00:45:26;;;;;;;1.70;0.10;;;;;;;2.33;61.71;99607.06;5363738;26;20008;-72
2024/04/16 00:47:53;;;;;;;4.82;0.30;;;;;;;2.24;61.60;99594.44;5348534;26;20384;-71
2024/04/16 00:50:19;;;;;;;4.72;0.25;;;;;;;2.74;60.39;99594.78;5365854;26;20008;-72
2024/04/16 00:52:45;;;;;;;8.02;0.13;;;;;;;2.49;60.72;99586.03;5337948;26;20064;-72
2024/04/16 00:55:11;;;;;;;4.07;0.20;;;;;;;2.25;61.03;99578.06;5369003;26;20899;-72
2024/04/16 00:57:38;;;;;;;3.72;0.55;;;;;;;2.57;60.83;99579.75;5359877;26;20025;-72
2024/04/16 01:00:04;;;;;;;2.45;0.10;;;;;;;2.67;60.37;99572.63;5355704;26;20012;-71
2024/04/16 01:02:30;;;;;;;4.93;0.20;;;;;;;2.40;60.86;99570.78;5336486;26;20037;-72
2024/04/16 01:04:55;;;;;;;6.75;0.65;;;;;;;2.17;61.60;99579.97;5354383;26;20039;-72
2024/04/16 01:07:24;;;;;;;2.40;0.10;;;;;;;2.30;60.97;99589.09;5352983;26;20027;-72
2024/04/16 01:09:49;;;;;;;9.40;0.93;;;;;;;2.60;60.65;99588.31;5348861;26;20019;-73
2024/04/16 01:12:15;;;;;;;0.82;0.10;;;;;;;2.42;60.94;99589.66;5359916;26;20010;-74
2024/04/16 01:14:41;;;;;;;2.03;0.52;;;;;;;2.27;60.82;99589.19;5377714;26;20003;-74
2024/04/16 01:17:07;;;;;;;8.80;0.22;;;;;;;2.70;59.59;99582.84;5403676;26;20002;-74
2024/04/16 01:19:32;;;;;;;2.10;0.28;;;;;;;2.12;61.88;99589.56;5386795;26;20084;-75
2024/04/16 01:22:00;;;;;;;2.42;0.40;;;;;;;2.56;60.20;99572.09;5395874;26;20440;-74
2024/04/16 01:24:25;;;;;;;4.57;0.10;;;;;;;2.32;60.55;99574.44;5394728;26;21764;-74
2024/04/16 01:26:53;;;;;;;2.17;0.38;;;;;;;2.53;59.98;99573.03;5389396;26;22138;-75
2024/04/16 01:29:18;;;;;;;2.97;0.20;;;;;;;2.10;60.98;99566.41;5395525;26;19999;-74
2024/04/16 01:31:47;;;;;;;1.17;0.10;;;;;;;1.91;61.41;99578.94;5359071;26;20106;-74
2024/04/16 01:34:12;;;;;;;4.18;0.00;;;;;;;2.41;60.88;99577.66;5361478;26;20085;-74
2024/04/16 01:36:38;;;;;;;2.95;0.17;;;;;;;2.60;60.54;99573.69;5384754;26;20043;-74
2024/04/16 01:39:04;;;;;;;6.05;0.05;;;;;;;2.35;60.74;99574.38;5400080;26;19999;-74
2024/04/16 01:41:29;;;;;;;4.00;0.60;;;;;;;2.06;61.53;99580.25;5389402;26;21300;-74
2024/04/16 01:43:55;;;;;;;8.25;0.20;;;;;;;2.26;60.74;99584.91;5389157;26;20043;-75
2024/04/16 01:46:20;;;;;;;5.90;0.68;;;;;;;2.32;60.74;99584.75;5351949;26;20656;-71
2024/04/16 01:48:49;;;;;;;3.53;0.22;;;;;;;2.53;60.21;99582.47;5390430;26;20504;-71
2024/04/16 01:51:14;;;;;;;1.55;0.08;;;;;;;2.65;59.36;99584.72;5420809;26;20915;-72
2024/04/16 01:53:40;;;;;;;0.55;0.10;;;;;;;2.27;60.96;99580.59;5389396;26;20007;-73
2024/04/16 01:56:09;;;;;;;0.25;0.03;;;;;;;2.16;61.54;99587.78;5389792;26;20008;-74
2024/04/16 01:58:35;;;;;;;1.25;0.03;;;;;;;1.66;62.65;99588.13;5387666;26;20057;-74
2024/04/16 02:01:00;;;;;;;3.10;0.08;;;;;;;1.62;62.89;99596.81;5389832;26;20352;-74
2024/04/16 02:03:25;;;;;;;5.90;0.20;;;;;;;1.87;62.47;99586.78;5395352;26;20006;-74
2024/04/16 02:05:51;;;;;;;0.57;0.20;;;;;;;2.03;61.69;99576.91;5395476;26;20003;-74
2024/04/16 02:08:19;;;;;;;0.75;0.00;;;;;;;1.77;61.76;99575.81;5387529;26;20331;-74
2024/04/16 02:10:52;;;;;;;2.05;0.00;;;;;;;1.96;60.79;99576.22;5388566;26;20007;-77
2024/04/16 02:13:20;;;;;;;4.15;0.10;;;;;;;2.12;60.99;99566.38;5361006;26;19998;-74
2024/04/16 02:15:45;;;;;;;3.67;0.30;;;;;;;2.12;60.99;99566.38;5362704;26;20499;-74
2024/04/16 02:18:11;;;;;;;0.93;0.15;;;;;;;2.18;60.99;99560.22;5359728;26;20495;-74
2024/04/16 02:20:36;;;;;;;1.45;0.10;;;;;;;1.99;61.16;99565.84;5390319;26;20017;-74
2024/04/16 02:23:02;;;;;;;4.65;0.10;;;;;;;2.33;60.45;99568.41;5369314;26;20003;-74
2024/04/16 02:25:27;;;;;;;1.17;0.00;;;;;;;2.35;60.34;99558.91;5376890;26;20015;-74
2024/04/16 02:27:53;;;;;;;1.58;0.00;;;;;;;1.84;62.03;99561.94;5373845;26;20054;-73
2024/04/16 02:30:18;;;;;;;2.83;0.30;;;;;;;2.15;61.05;99553.41;5396054;26;20463;-73
2024/04/16 02:32:44;;;;;;;4.68;0.10;;;;;;;2.25;61.72;99556.59;5392168;26;20346;-70
2024/04/16 02:35:09;;;;;;;1.75;0.10;;;;;;;2.06;62.03;99551.06;5349115;26;20345;-69
2024/04/16 02:37:34;;;;;;;5.70;0.00;;;;;;;2.05;62.27;99547.66;5356041;26;22144;-70
2024/04/16 02:40:00;;;;;;;3.25;0.22;;;;;;;1.91;62.80;99548.00;5379230;26;20003;-69
2024/04/16 02:42:25;;;;;;;3.58;0.00;;;;;;;1.60;63.39;99542.75;5394880;26;20011;-68
2024/04/16 02:44:51;;;;;;;2.10;0.10;;;;;;;1.89;62.79;99539.47;5386249;26;20010;-69
2024/04/16 02:47:21;;;;;;;0.22;0.00;;;;;;;1.54;63.61;99536.91;5391826;26;20027;-69
2024/04/16 02:49:46;;;;;;;0.20;0.10;;;;;;;1.31;63.77;99546.84;5392386;26;20002;-69
2024/04/16 02:52:12;;;;;;;3.03;0.00;;;;;;;1.27;63.71;99549.50;5391502;26;20950;-68
2024/04/16 02:54:38;;;;;;;1.02;0.10;;;;;;;1.57;62.99;99550.53;5387016;25;20184;-69
2024/04/16 02:57:04;;;;;;;2.78;0.10;;;;;;;1.27;62.75;99549.50;5383380;26;20349;-68
2024/04/16 02:59:29;;;;;;;0.30;0.00;;;;;;;1.68;62.03;99545.13;5390207;26;20015;-69
2024/04/16 03:01:55;;;;;;;0.35;0.00;;;;;;;1.96;61.32;99542.72;5381881;26;20011;-68
2024/04/16 03:04:20;;;;;;;0.30;0.00;;;;;;;1.36;63.11;99551.03;5392272;26;20025;-69
2024/04/16 03:06:45;;;;;;;0.82;0.10;;;;;;;1.49;62.48;99549.91;5390185;26;20781;-68
2024/04/16 03:09:11;;;;;;;0.20;0.00;;;;;;;1.51;62.61;99548.97;5388764;26;20148;-69
2024/04/16 03:11:36;;;;;;;3.90;0.10;;;;;;;1.07;64.32;99548.22;5361337;26;20044;-69
2024/04/16 03:14:02;;;;;;;5.10;0.10;;;;;;;1.46;62.64;99555.97;5392795;26;20062;-69
2024/04/16 03:16:27;;;;;;;0.45;0.00;;;;;;;1.82;62.00;99553.38;5389260;26;20540;-69
2024/04/16 03:18:53;;;;;;;1.38;0.00;;;;;;;1.85;62.13;99558.47;5382695;26;20010;-68
2024/04/16 03:21:18;;;;;;;8.48;1.75;;;;;;;1.87;62.17;99555.84;5397757;26;20080;-68
2024/04/16 03:23:44;;;;;;;1.08;0.10;;;;;;;1.98;61.82;99550.44;5384261;26;20346;-68
2024/04/16 03:26:10;;;;;;;1.08;0.20;;;;;;;1.69;62.72;99567.47;5391664;26;21008;-68
2024/04/16 03:28:36;;;;;;;0.00;0.00;;;;;;;1.36;63.27;99559.59;5384421;26;19998;-69
2024/04/16 03:31:01;;;;;;;3.95;0.00;;;;;;;2.02;61.79;99559.75;5390341;26;20352;-69
2024/04/16 03:33:27;;;;;;;0.30;0.00;;;;;;;1.85;62.28;99563.59;5377087;26;22143;-71
2024/04/16 03:35:54;;;;;;;0.40;0.10;;;;;;;1.87;61.92;99563.59;5349118;26;20007;-74
2024/04/16 03:38:19;;;;;;;0.88;0.10;;;;;;;2.03;61.89;99558.88;5353116;26;20074;-73
2024/04/16 03:41:00;;;;;;;0.40;0.03;;;;;;;1.91;62.21;99558.31;5356173;26;22261;-72
2024/04/16 03:43:29;;;;;;;1.92;0.10;;;;;;;1.97;61.61;99556.47;5364787;26;20028;-73
2024/04/16 03:45:55;;;;;;;0.05;0.00;;;;;;;1.92;62.21;99554.00;5397907;26;20026;-73
2024/04/16 03:48:22;;;;;;;0.30;0.00;;;;;;;2.02;62.04;99550.31;5367931;26;20004;-73
2024/04/16 03:50:48;;;;;;;0.25;0.00;;;;;;;2.07;62.16;99547.63;5352331;26;20705;-73
2024/04/16 03:53:14;;;;;;;0.25;0.00;;;;;;;2.10;61.53;99556.09;5352035;26;20007;-72
2024/04/16 03:55:39;;;;;;;7.22;0.25;;;;;;;1.80;62.77;99555.16;5357399;26;20008;-73
2024/04/16 03:58:05;;;;;;;0.43;0.17;;;;;;;1.96;62.62;99562.50;5326974;26;20689;-73
2024/04/16 04:03:16;;;;;;;0.70;0.00;;;;;;;2.68;60.40;99566.56;5354631;26;20026;-73
2024/04/16 04:05:45;;;;;;;1.48;0.10;;;;;;;2.32;61.16;99561.53;5327668;26;20015;-72
2024/04/16 04:08:13;;;;;;;0.32;0.03;;;;;;;2.42;61.19;99564.72;5365995;26;20386;-73
2024/04/16 04:10:39;;;;;;;0.25;0.00;;;;;;;2.37;61.49;99560.56;5399788;26;20013;-76
2024/04/16 04:13:04;;;;;;;0.80;0.10;;;;;;;2.60;60.60;99557.34;5393067;26;20520;-77
2024/04/16 04:15:31;;;;;;;0.45;0.05;;;;;;;2.22;60.74;99549.78;5392829;26;20734;-74
2024/04/16 04:17:56;;;;;;;1.15;0.20;;;;;;;2.12;61.40;99566.38;5385303;26;20540;-76
2024/04/16 04:20:24;;;;;;;1.60;0.10;;;;;;;2.23;61.05;99556.63;5402994;26;20002;-75
2024/04/16 04:22:50;;;;;;;1.92;0.20;;;;;;;2.37;61.55;99563.16;5372832;25;20003;-74
2024/04/16 04:25:17;;;;;;;3.20;0.17;;;;;;;2.66;60.42;99568.34;5395102;26;20294;-75
2024/04/16 04:27:43;;;;;;;0.52;0.00;;;;;;;2.44;60.75;99557.78;5391079;26;20698;-75
2024/04/16 04:30:09;;;;;;;1.90;0.10;;;;;;;2.70;60.14;99553.63;5389131;26;20016;-75
2024/04/16 04:32:35;;;;;;;0.70;0.20;;;;;;;2.83;59.79;99559.28;5395909;26;20046;-75
2024/04/16 04:35:01;;;;;;;2.05;0.10;;;;;;;2.67;60.13;99556.31;5335472;26;20004;-74
2024/04/16 04:37:27;;;;;;;2.55;0.30;;;;;;;2.64;60.43;99557.22;5364395;26;20737;-74
2024/04/16 04:39:52;;;;;;;1.65;0.08;;;;;;;2.72;60.36;99552.69;5386139;26;21691;-75
2024/04/16 04:42:18;;;;;;;3.40;0.20;;;;;;;2.41;61.50;99557.88;5390663;26;20002;-74
2024/04/16 04:44:44;;;;;;;0.80;0.10;;;;;;;2.61;60.81;99554.72;5363694;26;20000;-75
2024/04/16 04:47:09;;;;;;;7.88;0.50;;;;;;;2.62;60.46;99560.72;5314241;26;20909;-75
2024/04/16 04:49:35;;;;;;;0.45;0.10;;;;;;;2.85;60.05;99557.53;5386866;26;20034;-75
2024/04/16 04:52:01;;;;;;;2.40;0.10;;;;;;;2.62;60.23;99559.00;5387166;26;20208;-75
2024/04/16 04:54:26;;;;;;;0.88;0.10;;;;;;;2.49;60.71;99560.25;5398893;26;20003;-73
2024/04/16 04:56:51;;;;;;;3.53;0.10;;;;;;;2.54;60.47;99558.38;5380903;26;20033;-73
2024/04/16 04:59:17;;;;;;;0.43;0.10;;;;;;;2.24;61.06;99563.50;5391441;26;20010;-74
2024/04/16 05:01:43;;;;;;;2.90;0.10;;;;;;;2.65;60.25;99564.09;5388612;26;19996;-73
2024/04/16 05:04:08;;;;;;;0.63;0.10;;;;;;;1.84;62.26;99566.22;5389944;26;20484;-72
2024/04/16 05:06:34;;;;;;;1.23;0.30;;;;;;;2.56;60.49;99572.94;5391376;26;20038;-72
2024/04/16 05:09:00;;;;;;;1.17;0.10;;;;;;;2.66;60.18;99568.34;5379592;26;20014;-74
2024/04/16 05:11:25;;;;;;;0.68;0.10;;;;;;;2.88;59.98;99571.16;5401352;26;20010;-76
2024/04/16 05:13:51;;;;;;;4.88;0.10;;;;;;;3.04;59.42;99571.56;5381983;26;20002;-70
2024/04/16 05:16:16;;;;;;;2.13;0.30;;;;;;;3.04;59.38;99574.13;5393702;26;20075;-71
2024/04/16 05:18:42;;;;;;;2.70;0.20;;;;;;;3.04;58.95;99579.28;5382727;26;20003;-71
2024/04/16 05:21:08;;;;;;;4.00;0.52;;;;;;;3.00;59.81;99584.59;5370453;26;20732;-71
2024/04/16 05:23:35;;;;;;;3.60;0.10;;;;;;;3.14;59.35;99588.47;5395213;26;20008;-70
2024/04/16 05:26:04;;;;;;;0.80;0.20;;;;;;;3.12;59.37;99589.41;5382143;26;20006;-70
2024/04/16 05:28:30;;;;;;;3.13;0.30;;;;;;;3.30;58.90;99588.06;5369475;26;20066;-68
2024/04/16 05:30:57;;;;;;;7.15;0.63;;;;;;;3.14;59.06;99600.53;5388504;26;20286;-71
2024/04/16 05:33:25;;;;;;;1.20;0.20;;;;;;;3.28;59.08;99600.13;5398288;26;20007;-69
2024/04/16 05:35:50;;;;;;;3.03;0.20;;;;;;;3.37;58.64;99602.47;5355663;26;20010;-70
2024/04/16 05:38:16;;;;;;;5.28;0.30;;;;;;;3.45;58.47;99603.09;5393809;26;20021;-72
2024/04/16 05:40:42;;;;;;;3.92;0.28;;;;;;;3.53;58.52;99608.00;5369225;26;20010;-72
2024/04/16 05:43:09;;;;;;;0.88;0.20;;;;;;;3.55;58.54;99611.38;5403173;26;20003;-70
2024/04/16 05:45:35;;;;;;;0.30;0.10;;;;;;;3.36;58.62;99616.28;5400263;26;20016;-72
2024/04/16 05:48:01;;;;;;;1.20;0.20;;;;;;;3.49;58.03;99616.72;5398037;26;20004;-72
2024/04/16 05:50:27;;;;;;;0.63;0.20;;;;;;;3.59;58.40;99624.16;5406492;26;21188;-70
2024/04/16 05:52:52;;;;;;;0.90;0.10;;;;;;;3.80;57.64;99616.63;5383121;26;19999;-72
2024/04/16 05:55:19;;;;;;;2.05;0.10;;;;;;;3.92;58.00;99621.41;5384467;26;20381;-70
2024/04/16 05:57:45;;;;;;;1.38;0.35;;;;;;;3.90;57.22;99633.53;5393365;26;20021;-69
2024/04/16 06:00:11;;;;;;;0.88;0.20;;;;;;;4.04;57.15;99629.66;5385550;26;22150;-69
2024/04/16 06:02:37;;;;;;;0.68;0.20;;;;;;;4.50;56.92;99626.38;5389757;26;20006;-71
2024/04/16 06:05:03;;;;;;;0.55;0.50;;;;;;;5.81;52.97;99639.66;5384432;26;20605;-70
2024/04/16 06:07:28;;;;;;;0.45;0.10;;;;;;;5.76;51.99;99639.00;5388125;26;20092;-73
2024/04/16 06:09:53;;;;;;;3.25;0.15;;;;;;;5.34;53.33;99650.13;5335753;26;20084;-76
2024/04/16 06:12:19;;;;;;;0.63;0.17;;;;;;;5.07;54.43;99649.41;5332239;26;20070;-71
2024/04/16 06:14:44;;;;;;;2.65;0.10;;;;;;;4.35;55.17;99652.75;5360522;26;20059;-70
2024/04/16 06:17:11;;;;;;;1.05;0.10;;;;;;;4.58;55.61;99651.97;5341743;26;20011;-69
2024/04/16 06:19:36;;;;;;;1.40;0.10;;;;;;;5.36;55.26;99656.09;5358084;26;20900;-70
2024/04/16 06:22:02;;;;;;;1.02;0.20;;;;;;;6.10;53.70;99664.44;5346409;26;20022;-69
2024/04/16 06:24:28;;;;;;;0.50;0.20;;;;;;;5.99;51.86;99662.25;5337047;26;20101;-70
2024/04/16 06:26:54;;;;;;;0.40;0.20;;;;;;;5.84;53.14;99660.31;5319410;26;20045;-75
2024/04/16 06:29:20;;;;;;;2.50;0.35;;;;;;;5.74;53.18;99665.00;5353173;26;19991;-75
2024/04/16 06:31:45;;;;;;;3.40;0.30;;;;;;;5.40;52.91;99668.88;5364312;26;20016;-74
2024/04/16 06:34:11;;;;;;;1.95;0.40;;;;;;;5.17;53.85;99672.34;5344147;26;20077;-71
2024/04/16 06:36:36;;;;;;;2.38;0.28;;;;;;;5.04;53.55;99677.13;5367447;26;20255;-73
2024/04/16 06:39:02;;;;;;;4.78;0.55;;;;;;;5.06;54.11;99674.47;5373000;26;20042;-70
2024/04/16 06:41:28;;;;;;;1.58;0.30;;;;;;;5.01;54.53;99676.38;5359561;26;20023;-71
2024/04/16 06:43:53;;;;;;;3.13;0.63;;;;;;;5.09;54.45;99681.28;5348843;26;20080;-72
2024/04/16 06:46:19;;;;;;;2.58;0.20;;;;;;;5.20;54.38;99677.41;5309341;26;20422;-72
2024/04/16 06:48:44;;;;;;;2.25;0.30;;;;;;;5.11;54.66;99690.69;5352358;26;20008;-74
2024/04/16 06:51:10;;;;;;;1.60;0.75;;;;;;;4.93;54.67;99691.34;5353181;26;21843;-73
2024/04/16 06:53:35;;;;;;;1.08;0.20;;;;;;;4.20;55.80;99693.75;5350898;26;20377;-68
2024/04/16 06:56:02;;;;;;;1.52;0.30;;;;;;;4.50;54.61;99700.53;5354697;26;20504;-75
2024/04/16 06:58:28;;;;;;;1.20;0.30;;;;;;;4.62;55.25;99700.16;5350788;26;20364;-72
2024/04/16 07:00:54;;;;;;;0.47;0.20;;;;;;;4.34;55.37;99701.06;5350114;26;20015;-69
2024/04/16 07:03:21;;;;;;;1.63;0.45;;;;;;;4.62;54.45;99707.91;5347234;26;20062;-69
2024/04/16 07:05:47;;;;;;;1.92;0.35;;;;;;;4.27;55.32;99714.25;5326583;26;20524;-69
2024/04/16 07:08:12;;;;;;;2.15;0.25;;;;;;;4.55;55.84;99714.19;5349967;26;20806;-68
2024/04/16 07:10:38;;;;;;;0.40;0.17;;;;;;;4.13;55.55;99722.44;5351565;26;20012;-68
2024/04/16 07:13:04;;;;;;;1.75;0.10;;;;;;;4.37;54.67;99715.66;5350322;26;20473;-71
2024/04/16 07:15:30;;;;;;;0.20;0.10;;;;;;;4.32;53.77;99733.91;5352303;26;20000;-68
2024/04/16 07:17:56;;;;;;;2.65;0.20;;;;;;;4.41;54.25;99736.19;5355494;26;20014;-68
2024/04/16 07:20:23;;;;;;;0.95;0.20;;;;;;;4.10;54.85;99744.09;5357631;26;21146;-69
2024/04/16 07:22:49;;;;;;;1.13;0.08;;;;;;;4.17;54.79;99750.75;5340811;26;20096;-69
2024/04/16 07:25:14;;;;;;;3.00;0.20;;;;;;;4.63;53.71;99754.44;5347691;26;21687;-70
2024/04/16 07:27:40;;;;;;;1.38;0.10;;;;;;;4.72;53.39;99753.31;5356281;26;20012;-69
2024/04/16 07:30:08;;;;;;;0.30;0.10;;;;;;;4.63;51.94;99748.41;5386746;26;20018;-70
2024/04/16 07:32:34;;;;;;;0.60;0.10;;;;;;;4.87;53.53;99751.91;5401171;26;20008;-69
2024/04/16 07:34:59;;;;;;;0.52;0.05;;;;;;;4.71;53.01;99755.94;5386902;26;20323;-70
2024/04/16 07:37:25;;;;;;;0.15;0.10;;;;;;;4.77;52.02;99755.72;5380885;26;20008;-70
2024/04/16 07:39:50;;;;;;;0.20;0.10;;;;;;;5.01;52.23;99760.09;5364304;26;20002;-70
2024/04/16 07:42:16;;;;;;;0.50;0.10;;;;;;;4.68;52.34;99756.06;5379463;26;20781;-71
2024/04/16 07:44:42;;;;;;;0.95;0.10;;;;;;;5.14;51.53;99768.28;5390907;26;20006;-73
2024/04/16 07:47:07;;;;;;;2.78;0.10;;;;;;;5.50;49.73;99767.84;5383452;26;21091;-73
2024/04/16 07:49:33;;;;;;;1.77;0.13;;;;;;;6.07;49.36;99766.56;5390880;26;20002;-70
2024/04/16 07:51:59;;;;;;;0.30;0.10;;;;;;;6.49;47.18;99770.16;5386070;26;20018;-70
2024/04/16 07:54:25;;;;;;;0.40;0.03;;;;;;;6.85;46.39;99769.53;5395169;26;20356;-69
2024/04/16 07:56:51;;;;;;;0.47;0.00;;;;;;;6.94;45.09;99774.34;5386921;26;20592;-71
2024/04/16 07:59:17;;;;;;;0.10;0.00;;;;;;;7.10;45.83;99777.97;5380896;25;20002;-67
2024/04/16 08:01:44;;;;;;;0.10;0.00;;;;;;;7.62;45.03;99782.66;5387609;26;20096;-68
2024/04/16 08:04:09;;;;;;;0.45;0.00;;;;;;;7.23;45.37;99788.69;5377766;26;20003;-69
2024/04/16 08:06:34;;;;;;;1.05;0.13;;;;;;;7.03;45.93;99796.50;5393668;26;20080;-69
2024/04/16 08:09:22;;;;;;;0.85;0.10;;;;;;;7.45;44.72;99799.00;5391023;26;20245;-70
2024/04/16 08:11:47;;;;;;;0.28;0.00;;;;;;;7.88;44.37;99796.25;5387778;26;20478;-70
2024/04/16 08:14:16;;;;;;;0.55;0.32;;;;;;;7.98;43.33;99807.06;5374782;26;20007;-69
2024/04/16 08:16:42;;;;;;;0.40;0.10;;;;;;;8.11;43.72;99798.66;5386874;26;20389;-70
2024/04/16 08:19:08;;;;;;;0.60;0.10;;;;;;;8.70;43.19;99795.84;5381551;26;20050;-69
2024/04/16 08:21:33;;;;;;;0.30;0.03;;;;;;;8.46;43.66;99801.31;5383170;26;20356;-69
2024/04/16 08:24:01;;;;;;;1.00;0.10;;;;;;;8.40;43.14;99811.19;5374541;26;20022;-69
2024/04/16 08:26:27;;;;;;;0.52;0.10;;;;;;;8.37;41.81;99814.78;5347843;26;20613;-69
2024/04/16 08:28:55;;;;;;;0.35;0.10;;;;;;;8.34;43.44;99822.75;5383522;26;20021;-70
2024/04/16 08:31:21;;;;;;;0.63;0.10;;;;;;;8.59;41.74;99830.22;5372574;26;20018;-70
2024/04/16 08:33:47;;;;;;;0.70;0.00;;;;;;;7.82;42.95;99839.00;5388778;26;21135;-69
2024/04/16 08:36:12;;;;;;;1.38;0.13;;;;;;;7.79;44.15;99836.53;5382039;26;20022;-68
2024/04/16 08:38:38;;;;;;;1.00;0.00;;;;;;;8.10;44.14;99849.00;5382626;26;20076;-70
2024/04/16 08:41:04;;;;;;;0.10;0.00;;;;;;;8.32;42.48;99851.44;5360171;26;20020;-70
2024/04/16 08:43:33;;;;;;;0.22;0.10;;;;;;;8.29;42.57;99850.72;5361928;26;20004;-68
2024/04/16 08:46:01;;;;;;;1.85;0.70;;;;;;;8.26;43.87;99862.13;5380687;26;20007;-69
2024/04/16 08:48:31;;;;;;;0.20;0.00;;;;;;;8.40;41.78;99869.31;5364692;25;20007;-68
2024/04/16 08:50:57;;;;;;;0.20;0.00;;;;;;;8.32;43.73;99867.06;5354977;26;20357;-69
2024/04/16 08:53:24;;;;;;;2.38;0.10;;;;;;;8.30;42.12;99881.91;5336388;26;20003;-70
2024/04/16 08:55:50;;;;;;;0.10;0.00;;;;;;;8.49;42.02;99881.03;5351437;26;20047;-69
2024/04/16 08:58:16;;;;;;;0.13;0.00;;;;;;;8.40;42.90;99890.13;5344429;26;20008;-69
2024/04/16 09:00:43;;;;;;;1.23;0.10;;;;;;;8.47;43.28;99888.97;5353104;26;20007;-69
2024/04/16 09:03:09;;;;;;;2.40;0.10;;;;;;;8.52;42.38;99893.94;5348604;26;20082;-69
2024/04/16 09:05:35;;;;;;;1.17;0.00;;;;;;;8.60;42.49;99898.78;5345154;26;20307;-69
2024/04/16 09:08:00;;;;;;;0.68;0.10;;;;;;;8.50;43.22;99904.44;5330808;26;20010;-69
2024/04/16 09:10:26;;;;;;;1.30;0.10;;;;;;;8.67;41.90;99910.59;5365670;26;20023;-69
2024/04/16 09:12:53;;;;;;;0.20;0.10;;;;;;;8.44;44.49;99922.94;5374411;26;20007;-69
2024/04/16 09:15:22;;;;;;;0.10;0.10;;;;;;;8.16;43.94;99925.97;5333592;26;20004;-69
2024/04/16 09:17:52;;;;;;;0.30;0.10;;;;;;;7.87;44.80;99927.22;5356314;26;20104;-69
2024/04/16 09:20:19;;;;;;;0.32;0.10;;;;;;;7.74;45.77;99935.59;5343852;26;20081;-69
2024/04/16 09:22:50;;;;;;;2.50;0.10;;;;;;;7.98;45.47;99943.25;5356777;26;20320;-68
2024/04/16 09:25:20;;;;;;;0.30;0.10;;;;;;;7.83;45.20;99949.13;5337939;26;20556;-69
2024/04/16 09:27:52;;;;;;;0.45;0.10;;;;;;;8.02;44.43;99944.78;5354570;26;20234;-69
2024/04/16 09:30:17;;;;;;;;;;;;;;;8.21;44.83;99946.59;5377096;26;20003;-69
2024/04/16 09:32:45;;;;;;;0.10;0.10;;;;;;;8.19;42.82;99945.81;5391052;26;20447;-69
2024/04/16 09:35:11;;;;;;;0.45;0.10;;;;;;;8.33;45.17;99959.03;5323270;26;20391;-68
2024/04/16 09:37:36;;;;;;;1.08;0.10;;;;;;;8.23;44.70;99953.41;5324319;26;20014;-69
2024/04/16 09:40:03;;;;;;;2.00;0.10;;;;;;;8.23;45.01;99962.97;5359068;26;20014;-68
2024/04/16 09:42:31;;;;;;;0.50;0.20;;;;;;;8.45;44.00;99962.84;5344023;26;20124;-68
2024/04/16 09:44:58;;;;;;;1.05;0.20;;;;;;;8.44;42.83;99962.00;5358715;26;20012;-69
2024/04/16 09:47:24;;;;;;;0.50;0.10;;;;;;;8.60;43.88;99969.09;5315021;26;20036;-69
2024/04/16 09:49:54;;;;;;;0.38;0.10;;;;;;;8.12;44.83;99973.88;5380443;26;20003;-69
2024/04/16 09:52:20;;;;;;;0.30;0.22;;;;;;;8.03;44.83;99980.31;5374087;26;20734;-69
2024/04/16 09:54:51;;;;;;;0.90;0.13;;;;;;;8.41;43.29;99996.00;5392855;26;20048;-69
2024/04/16 09:57:18;;;;;;;0.00;0.00;;;;;;;8.96;42.46;99988.28;5372346;26;19998;-69
2024/04/16 09:59:50;;;;;;;0.17;0.00;;;;;;;9.34;41.39;99996.03;5364613;26;20484;-68
2024/04/16 10:02:16;;;;;;;0.65;0.05;;;;;;;9.80;40.86;99993.75;5347920;26;20007;-68
2024/04/16 10:04:42;;;;;;;0.75;0.00;;;;;;;10.31;41.19;99996.34;5385925;26;20011;-68
2024/04/16 10:07:08;;;;;;;0.43;0.10;;;;;;;10.36;40.33;99996.09;5384043;26;20540;-68
2024/04/16 10:09:33;;;;;;;0.30;0.00;;;;;;;10.31;39.00;100001.56;5375004;26;20015;-68
2024/04/16 10:12:00;;;;;;;0.80;0.10;;;;;;;10.14;40.32;100007.66;5396840;26;20011;-68
2024/04/16 10:14:26;;;;;;;0.10;0.00;;;;;;;10.13;39.83;100006.00;5354461;26;20457;-69
2024/04/16 10:16:53;;;;;;;0.00;0.00;;;;;;;10.14;38.99;100010.28;5361157;26;20296;-68
2024/04/16 10:19:19;;;;;;;0.13;0.00;;;;;;;9.94;39.77;100019.13;5341660;26;20572;-69
2024/04/16 10:21:47;;;;;;;0.40;0.10;;;;;;;9.46;41.67;100020.66;5352252;26;20485;-69
2024/04/16 10:24:16;;;;;;;1.60;0.03;;;;;;;9.83;39.95;100018.00;5344548;26;20014;-69
2024/04/16 10:26:46;;;;;;;0.15;0.00;;;;;;;10.12;39.62;100019.97;5354139;26;20038;-68
2024/04/16 10:29:16;;;;;;;0.22;0.00;;;;;;;9.73;40.56;100028.88;5322530;26;20007;-68
2024/04/16 10:31:49;;;;;;;0.20;0.00;;;;;;;9.94;39.44;100026.13;5351327;26;22471;-69
2024/04/16 10:34:21;;;;;;;0.20;0.00;;;;;;;9.82;40.10;100031.97;5370701;26;20030;-69
2024/04/16 10:36:47;;;;;;;;;;;;;;;9.43;40.14;100030.38;5398073;26;20016;-69
2024/04/16 10:39:14;;;;;;;1.02;0.00;;;;;;;9.32;40.36;100028.28;5353583;26;20347;-69
2024/04/16 10:41:50;;;;;;;0.40;0.03;;;;;;;8.98;40.06;100035.09;5358048;26;20298;-69
2024/04/16 10:44:18;;;;;;;0.22;0.08;;;;;;;8.81;41.21;100040.25;5377642;26;20012;-69
2024/04/16 10:46:44;;;;;;;1.17;0.00;;;;;;;9.11;40.31;100045.81;5389550;26;20068;-69
2024/04/16 10:49:11;;;;;;;0.90;0.20;;;;;;;9.42;40.59;100041.75;5367904;26;20034;-68
2024/04/16 10:51:37;;;;;;;0.90;0.10;;;;;;;9.23;40.70;100053.06;5347935;26;20489;-69
2024/04/16 10:54:11;;;;;;;2.25;0.20;;;;;;;9.26;41.20;100058.13;5357885;26;20480;-69
2024/04/16 10:56:38;;;;;;;1.33;0.10;;;;;;;8.88;40.67;100060.75;5323929;26;20011;-69
2024/04/16 10:59:07;;;;;;;1.58;0.20;;;;;;;8.90;41.78;100061.53;5342575;26;20007;-69
2024/04/16 11:01:33;;;;;;;0.20;0.00;;;;;;;8.63;42.27;100073.16;5326428;26;20845;-69
2024/04/16 11:04:13;;;;;;;0.40;0.10;;;;;;;8.31;43.45;100076.25;5380826;26;20096;-69
2024/04/16 11:06:42;;;;;;;0.20;0.00;;;;;;;8.14;44.23;100082.19;5366459;26;20017;-69
2024/04/16 11:09:08;;;;;;;0.22;0.00;;;;;;;7.66;44.42;100083.31;5390324;26;20003;-68
2024/04/16 11:11:33;;;;;;;0.17;0.17;;;;;;;7.50;44.53;100087.41;5407574;26;21090;-69
2024/04/16 11:14:00;;;;;;;0.77;0.00;;;;;;;7.66;44.23;100100.69;5364420;26;20018;-68
2024/04/16 11:16:27;;;;;;;1.27;0.05;;;;;;;7.90;44.59;100096.25;5349005;26;20080;-70
2024/04/16 11:18:52;;;;;;;1.70;0.10;;;;;;;8.05;44.05;100106.00;5386283;26;20110;-69
2024/04/16 11:21:18;;;;;;;1.45;0.00;;;;;;;8.64;43.87;100106.13;5358932;26;20131;-69
2024/04/16 11:23:44;;;;;;;1.38;0.00;;;;;;;9.32;42.53;100112.59;5356939;26;20769;-69
2024/04/16 11:26:10;;;;;;;1.25;0.00;;;;;;;9.70;41.95;100117.75;5381680;26;20008;-70
2024/04/16 11:28:39;;;;;;;0.00;0.00;;;;;;;10.16;40.54;100114.66;5351187;26;20850;-69
2024/04/16 11:31:05;;;;;;;0.15;0.00;;;;;;;10.05;39.35;100119.56;5364462;26;20002;-69
2024/04/16 11:33:33;;;;;;;0.20;0.00;;;;;;;9.71;40.75;100122.03;5363382;26;20527;-69
2024/04/16 11:36:06;;;;;;;1.23;0.22;;;;;;;9.68;41.63;100130.03;5378060;26;20003;-69
2024/04/16 11:38:34;;;;;;;0.22;0.00;;;;;;;9.14;42.11;100135.16;5370656;26;20018;-69
2024/04/16 11:41:03;;;;;;;0.40;0.03;;;;;;;9.68;41.61;100129.16;5387290;26;20003;-68